Triathlon Gravelines 2022

Epreuve sélectionnée:


Triathlon M - Résultats Scratch

Filtre:

Partants Général Top 5



Recherche:

N° dossard
Nom
Club
Triathlon M - Classement arrivée
Clt Athlète Nat. Club Temps Sexe Cat Nat #1 Velo #2 CaP Retour vélo
1 51 RENARD Emmanuel COTE D OPALE TRIATHLON CALAIS SAINT OMER 02:01:48 M (1e) Master (1e) 00:20:00 (1e) 00:01:00 (6e) 01:00:30 (5e) 00:00:56 (36e) 00:39:24 (8e) 01:21:29 (1e) Partagez votre performance
2 38 DUYME Tom TRIATHLON CLUB D`HAZEBROUCK 02:05:32 M (2e) Senior (1e) 00:24:45 (27e) 00:00:51 (2e) 00:58:04 (1e) 00:00:44 (3e) 00:41:09 (17e) 01:23:40 (2e) Partagez votre performance
3 22 THIROT Benoit 02:05:52 M (3e) Master (2e) 00:25:08 (30e) 00:01:08 (19e) 00:59:43 (4e) 00:00:53 (22e) 00:39:03 (7e) 01:25:57 (4e) Partagez votre performance
4 160 SAINT-OMER Virgile COTE D OPALE TRIATHLON CALAIS SAINT OMER 02:07:26 M (4e) Senior (2e) 00:22:21 (6e) 00:00:48 (1e) 01:05:22 (43e) 00:00:43 (2e) 00:38:13 (4e) 01:28:31 (7e) Partagez votre performance
5 74 DUVINAGE Robin TRIATHLON CLUB DE DOUAI 02:07:32 M (5e) Senior (3e) 00:25:27 (37e) 00:01:20 (44e) 01:02:09 (12e) 00:00:52 (18e) 00:37:45 (2e) 01:28:56 (9e) Partagez votre performance
6 165 LECARDONNEL Axel AS TRIATHLON GENDARMERIE 02:07:51 M (6e) Senior (4e) 00:26:23 (58e) 00:01:13 (30e) 01:01:24 (8e) 00:00:50 (14e) 00:38:03 (3e) 01:28:59 (11e) Partagez votre performance
7 135 DE SAINT FUSCIEN Olivier 02:07:59 M (7e) Senior (5e) 00:24:13 (19e) 00:01:55 (122e) 00:59:25 (2e) 00:01:08 (80e) 00:41:20 (18e) 01:25:32 (3e) Partagez votre performance
8 58 TIBERGHIEN Antoine LYS CALAIS TRIATHLON 02:09:46 M (8e) Master (3e) 00:23:07 (9e) 00:01:03 (11e) 01:02:24 (15e) 00:01:07 (77e) 00:42:06 (20e) 01:26:34 (5e) Partagez votre performance
9 16 DUMORTIER Jérôme C.C.WAVRIN 02:10:34 M (9e) Master (4e) 00:26:13 (54e) 00:01:17 (39e) 01:01:32 (10e) 00:01:00 (53e) 00:40:34 (11e) 01:29:01 (12e) Partagez votre performance
10 200 MEUNIER Vincent SKWAL ATHLON 02:10:58 M (10e) Senior (6e) 00:22:59 (8e) 00:01:11 (26e) 01:03:17 (22e) 00:00:47 (8e) 00:42:47 (32e) 01:27:25 (6e) Partagez votre performance
11 237 CARPENTIER Rémy TRIATHLON LITTORAL 59 02:11:38 M (11e) Senior (7e) 00:25:17 (32e) 00:01:01 (8e) 01:04:48 (35e) 00:00:53 (24e) 00:39:41 (9e) 01:31:05 (29e) Partagez votre performance
12 90 BOURGUET Benoit 02:11:41 M (12e) Master (5e) 00:22:32 (7e) 00:01:31 (63e) 01:05:40 (48e) 00:01:00 (52e) 00:41:01 (15e) 01:29:41 (20e) Partagez votre performance
13 158 BONTE Simon TRIATHLON LITTORAL 59 02:12:15 M (13e) Senior (8e) 00:25:29 (38e) 00:01:22 (46e) 01:03:45 (24e) 00:01:06 (76e) 00:40:36 (12e) 01:30:34 (26e) Partagez votre performance
14 150 ALBERT François LOMME NATATION TRIATHLON 02:13:29 M (14e) Senior (9e) 00:25:56 (44e) 00:01:16 (36e) 01:05:55 (53e) 00:01:25 (158e) 00:38:59 (6e) 01:33:06 (41e) Partagez votre performance
15 132 DELBECQUE Vincent GRAVELINES TRIATHLON 02:13:35 M (15e) Senior (10e) 00:27:06 (69e) 00:01:09 (20e) 01:01:22 (7e) 00:00:59 (47e) 00:43:01 (35e) 01:29:36 (15e) Partagez votre performance
16 47 HANSER Boris 02:13:55 M (16e) Master (6e) 00:24:41 (24e) 00:02:00 (135e) 01:02:18 (14e) 00:00:56 (34e) 00:44:02 (44e) 01:28:58 (10e) Partagez votre performance
17 209 DESAILLY Geoffrey TRIATHLON CLUB DE LIEVIN 02:13:59 M (17e) Senior (11e) 00:27:08 (70e) 00:01:52 (114e) 01:01:25 (9e) 00:01:22 (142e) 00:42:14 (21e) 01:30:24 (23e) Partagez votre performance
18 136 THESSE David 02:14:10 M (18e) Master (7e) 00:29:57 (133e) 00:01:09 (23e) 01:01:35 (11e) 00:00:57 (39e) 00:40:33 (10e) 01:32:40 (39e) Partagez votre performance
19 259 TIRMARCHE Denis BLANC NEZ TRIATHLON 62 02:14:20 M (19e) Senior (12e) 00:23:50 (18e) 00:02:02 (147e) 01:03:49 (25e) 00:01:13 (101e) 00:43:28 (38e) 01:29:40 (19e) Partagez votre performance
20 111 CALLEWAERT Simon 02:14:46 M (20e) Senior (13e) 00:23:21 (11e) 00:01:10 (25e) 01:04:16 (30e) 00:00:53 (23e) 00:45:09 (50e) 01:28:45 (8e) Partagez votre performance
21 64 BAUDUIN Arthur 02:15:15 M (21e) Senior (14e) 00:24:43 (26e) 00:00:56 (3e) 01:05:47 (52e) 00:00:56 (37e) 00:42:54 (34e) 01:31:25 (32e) Partagez votre performance
22 23 LEBRUN Emmanuel 02:15:18 M (22e) Master (8e) 00:27:16 (74e) 00:01:22 (47e) 01:03:07 (20e) 00:01:00 (51e) 00:42:35 (27e) 01:31:44 (34e) Partagez votre performance
23 24 ALBERT Florent 02:15:37 M (23e) Master (9e) 00:22:06 (3e) 00:01:18 (40e) 01:06:15 (57e) 00:00:54 (27e) 00:45:05 (49e) 01:29:39 (18e) Partagez votre performance
24 45 DUSSART David TRIATHLON CLUB D`HAZEBROUCK 02:16:00 M (24e) Master (10e) 00:27:01 (67e) 00:01:33 (68e) 01:02:31 (17e) 00:01:16 (118e) 00:43:40 (41e) 01:31:04 (28e) Partagez votre performance
25 79 LIBERT Thibault VILLENEUVE D ASCQ TRIATHLON 02:16:11 M (25e) Senior (15e) 00:26:27 (60e) 00:01:09 (21e) 01:04:15 (29e) 00:00:40 (1e) 00:43:43 (42e) 01:31:50 (35e) Partagez votre performance
26 216 LAMOTE Lambert 02:17:01 M (26e) Senior (16e) 00:26:33 (63e) 00:01:04 (13e) 01:06:47 (62e) 00:01:37 (190e) 00:41:02 (16e) 01:34:23 (49e) Partagez votre performance
27 54 LEDOUX Christophe VILLENEUVE D ASCQ TRIATHLON 02:17:33 M (27e) Master (11e) 00:30:56 (159e) 00:01:28 (59e) 01:05:33 (47e) 00:01:00 (54e) 00:38:37 (5e) 01:37:56 (75e) Partagez votre performance
28 70 VIFQUIN Gaëtan AMIENS TRIATHLON 02:17:38 M (28e) Senior (17e) 00:26:13 (55e) 00:01:07 (18e) 01:02:17 (13e) 00:02:07 (259e) 00:45:56 (58e) 01:29:37 (16e) Partagez votre performance
29 69 COQUET Alexandre 02:18:25 M (29e) Senior (18e) 00:27:01 (68e) 00:02:02 (145e) 01:03:05 (19e) 00:00:55 (30e) 00:45:25 (52e) 01:32:07 (36e) Partagez votre performance
30 15 MOULIN Nicolas VALENCIENNES TRIATHLON 02:18:37 M (30e) Master (12e) 00:25:26 (35e) 00:01:28 (61e) 01:07:07 (65e) 00:01:10 (92e) 00:43:28 (39e) 01:34:00 (44e) Partagez votre performance
31 121 LOOTEN Bernard TRIATHLON LITTORAL 59 02:19:24 M (31e) Master (13e) 00:29:07 (112e) 00:01:41 (84e) 01:04:27 (32e) 00:00:51 (17e) 00:43:20 (37e) 01:35:14 (57e) Partagez votre performance
32 39 DEBOUVER Thibaut TRIATHLON CLUB D`HAZEBROUCK 02:19:38 M (32e) Senior (19e) 00:27:13 (71e) 00:01:35 (72e) 01:02:38 (18e) 00:00:59 (46e) 00:47:15 (77e) 01:31:25 (31e) Partagez votre performance
33 44 MOREL Sebastien TRIATHLON CLUB D`HAZEBROUCK 02:19:46 M (33e) Master (14e) 00:24:19 (22e) 00:01:31 (65e) 01:03:30 (23e) 00:00:55 (29e) 00:49:34 (106e) 01:29:19 (13e) Partagez votre performance
34 217 BARBEAU Julien 02:20:04 M (34e) Senior (20e) 00:24:31 (23e) 00:01:21 (45e) 01:04:40 (33e) 00:01:03 (65e) 00:48:30 (94e) 01:30:32 (25e) Partagez votre performance
35 184 VANDEWALLE Thomas 02:20:05 M (35e) Senior (21e) 00:25:23 (33e) 00:02:00 (137e) 01:08:36 (76e) 00:01:23 (143e) 00:42:46 (30e) 01:35:58 (62e) Partagez votre performance
36 197 FERNANDES Christophe TEAM S BIKE AMIENS 02:20:10 M (36e) Master (15e) 00:30:45 (154e) 00:02:06 (158e) 01:05:24 (45e) 00:01:02 (61e) 00:40:56 (14e) 01:38:13 (77e) Partagez votre performance
37 139 DELANOY Xavier TRIATHLON CLUB BOULONNAIS 02:20:21 M (37e) Master (16e) 00:26:08 (49e) 00:02:03 (149e) 01:03:14 (21e) 00:01:20 (131e) 00:47:38 (83e) 01:31:24 (30e) Partagez votre performance
38 110 KEUPPENS Evelien 02:20:25 F (1e) Senior (1e) 00:23:47 (16e) 00:01:02 (9e) 01:07:39 (69e) 00:00:46 (7e) 00:47:13 (76e) 01:32:27 (37e) Partagez votre performance
39 172 SABBE Stephane RONCQ TRIATHLON 02:20:31 M (38e) Master (17e) 00:26:39 (64e) 00:01:48 (103e) 01:08:30 (74e) 00:01:13 (104e) 00:42:23 (24e) 01:36:56 (68e) Partagez votre performance
40 128 LELEU Laurent TRIATHLON CLUB DE LIEVIN 02:20:39 M (39e) Master (18e) 00:34:16 (232e) 00:02:55 (246e) 01:14:52 (176e) 00:01:48 (220e) 00:26:51 (1e) 01:52:01 (199e) Partagez votre performance
41 34 FOURNIER Kevin GRAVELINES TRIATHLON 02:20:51 M (40e) Senior (22e) 00:27:37 (84e) 00:01:00 (5e) 01:01:01 (6e) 00:00:48 (9e) 00:50:26 (122e) 01:29:37 (17e) Partagez votre performance
42 242 CHERON Julien TRIATHLON ORCHIES PEVELE 02:21:01 M (41e) Senior (23e) 00:31:57 (185e) 00:01:06 (15e) 01:04:53 (36e) 00:00:52 (20e) 00:42:14 (22e) 01:37:55 (73e) Partagez votre performance
43 66 CRÉPIN Olivier LYS CALAIS TRIATHLON 02:21:01 M (42e) Master (19e) 00:27:24 (76e) 00:01:36 (74e) 01:02:29 (16e) 00:01:09 (89e) 00:48:25 (92e) 01:31:27 (33e) Partagez votre performance
44 55 LEGAGE Benoît VILLENEUVE D ASCQ TRIATHLON 02:21:11 M (43e) Master (20e) 00:30:42 (151e) 00:01:28 (60e) 01:05:45 (50e) 00:01:01 (57e) 00:42:17 (23e) 01:37:54 (72e) Partagez votre performance
45 157 MACHIN Karl COTE D OPALE TRIATHLON CALAIS SAINT OMER 02:21:19 M (44e) Senior (24e) 00:24:50 (28e) 00:01:20 (42e) 01:04:26 (31e) 00:00:50 (13e) 00:49:54 (110e) 01:30:36 (27e) Partagez votre performance
46 122 HUPIN Alexis LOMME NATATION TRIATHLON 02:21:19 M (45e) Senior (25e) 00:26:12 (53e) 00:01:22 (48e) 01:05:23 (44e) 00:01:15 (114e) 00:47:08 (72e) 01:32:57 (40e) Partagez votre performance
47 119 DILLIES Rémi 02:21:19 M (46e) Senior (26e)